sensor_id;sensor_type;location;lat;lon;timestamp;P1;durP1;ratioP1;P2;durP2;ratioP2
58528;SDS011;44322;52.968;5.816;2023-03-14T00:02:09;24.20;;;4.45;;
58528;SDS011;44322;52.968;5.816;2023-03-14T00:04:34;16.42;;;3.58;;
58528;SDS011;44322;52.968;5.816;2023-03-14T00:07:00;20.33;;;4.28;;
58528;SDS011;44322;52.968;5.816;2023-03-14T00:09:26;13.75;;;3.53;;
58528;SDS011;44322;52.968;5.816;2023-03-14T00:11:55;17.48;;;4.30;;
58528;SDS011;44322;52.968;5.816;2023-03-14T00:14:20;20.75;;;4.13;;
58528;SDS011;44322;52.968;5.816;2023-03-14T00:16:46;19.77;;;4.20;;
58528;SDS011;44322;52.968;5.816;2023-03-14T00:19:12;18.30;;;3.92;;
58528;SDS011;44322;52.968;5.816;2023-03-14T00:21:37;19.00;;;4.10;;
58528;SDS011;44322;52.968;5.816;2023-03-14T00:24:03;21.30;;;4.47;;
58528;SDS011;44322;52.968;5.816;2023-03-14T00:26:29;20.17;;;4.55;;
58528;SDS011;44322;52.968;5.816;2023-03-14T00:28:54;20.73;;;4.32;;
58528;SDS011;44322;52.968;5.816;2023-03-14T00:31:21;27.35;;;5.05;;
58528;SDS011;44322;52.968;5.816;2023-03-14T00:33:47;16.25;;;3.55;;
58528;SDS011;44322;52.968;5.816;2023-03-14T00:36:13;23.30;;;4.20;;
58528;SDS011;44322;52.968;5.816;2023-03-14T00:41:08;14.20;;;3.70;;
58528;SDS011;44322;52.968;5.816;2023-03-14T00:46:00;16.25;;;3.72;;
58528;SDS011;44322;52.968;5.816;2023-03-14T00:48:26;13.15;;;3.58;;
58528;SDS011;44322;52.968;5.816;2023-03-14T00:50:52;18.55;;;3.60;;
58528;SDS011;44322;52.968;5.816;2023-03-14T00:53:17;16.55;;;4.13;;
58528;SDS011;44322;52.968;5.816;2023-03-14T00:55:44;22.27;;;4.05;;
58528;SDS011;44322;52.968;5.816;2023-03-14T00:58:11;16.13;;;3.80;;
58528;SDS011;44322;52.968;5.816;2023-03-14T01:00:38;12.15;;;3.08;;
58528;SDS011;44322;52.968;5.816;2023-03-14T01:03:04;16.55;;;3.53;;
58528;SDS011;44322;52.968;5.816;2023-03-14T01:05:30;15.32;;;3.38;;
58528;SDS011;44322;52.968;5.816;2023-03-14T01:07:56;15.05;;;3.10;;
58528;SDS011;44322;52.968;5.816;2023-03-14T01:10:22;17.80;;;3.50;;
58528;SDS011;44322;52.968;5.816;2023-03-14T01:12:47;13.15;;;3.17;;
58528;SDS011;44322;52.968;5.816;2023-03-14T01:15:13;17.70;;;3.15;;
58528;SDS011;44322;52.968;5.816;2023-03-14T01:17:39;13.52;;;3.08;;
58528;SDS011;44322;52.968;5.816;2023-03-14T01:20:06;14.00;;;3.17;;
58528;SDS011;44322;52.968;5.816;2023-03-14T01:22:35;14.52;;;3.28;;
58528;SDS011;44322;52.968;5.816;2023-03-14T01:25:04;16.20;;;3.88;;
58528;SDS011;44322;52.968;5.816;2023-03-14T01:27:30;18.13;;;3.30;;
58528;SDS011;44322;52.968;5.816;2023-03-14T01:29:56;15.23;;;3.00;;
58528;SDS011;44322;52.968;5.816;2023-03-14T01:32:21;15.45;;;3.10;;
58528;SDS011;44322;52.968;5.816;2023-03-14T01:34:47;16.10;;;3.13;;
58528;SDS011;44322;52.968;5.816;2023-03-14T01:37:13;14.45;;;2.75;;
58528;SDS011;44322;52.968;5.816;2023-03-14T01:39:39;16.13;;;2.65;;
58528;SDS011;44322;52.968;5.816;2023-03-14T01:42:05;11.45;;;2.88;;
58528;SDS011;44322;52.968;5.816;2023-03-14T01:44:53;11.63;;;3.08;;
58528;SDS011;44322;52.968;5.816;2023-03-14T01:47:20;12.68;;;2.90;;
58528;SDS011;44322;52.968;5.816;2023-03-14T01:49:47;11.02;;;2.83;;
58528;SDS011;44322;52.968;5.816;2023-03-14T01:52:22;18.05;;;3.13;;
58528;SDS011;44322;52.968;5.816;2023-03-14T01:54:51;18.35;;;2.90;;
58528;SDS011;44322;52.968;5.816;2023-03-14T01:57:27;15.25;;;2.72;;
58528;SDS011;44322;52.968;5.816;2023-03-14T01:59:57;11.73;;;2.72;;
58528;SDS011;44322;52.968;5.816;2023-03-14T02:02:26;11.85;;;3.08;;
58528;SDS011;44322;52.968;5.816;2023-03-14T02:04:53;13.27;;;3.05;;
58528;SDS011;44322;52.968;5.816;2023-03-14T02:07:24;10.93;;;2.20;;
58528;SDS011;44322;52.968;5.816;2023-03-14T02:10:07;10.85;;;2.25;;
58528;SDS011;44322;52.968;5.816;2023-03-14T02:12:34;13.02;;;2.35;;
58528;SDS011;44322;52.968;5.816;2023-03-14T02:15:11;12.43;;;2.15;;
58528;SDS011;44322;52.968;5.816;2023-03-14T02:17:57;12.88;;;2.22;;
58528;SDS011;44322;52.968;5.816;2023-03-14T02:20:55;11.10;;;2.70;;
58528;SDS011;44322;52.968;5.816;2023-03-14T02:23:31;13.93;;;2.85;;
58528;SDS011;44322;52.968;5.816;2023-03-14T02:26:09;12.88;;;2.90;;
58528;SDS011;44322;52.968;5.816;2023-03-14T02:28:37;15.98;;;2.60;;
58528;SDS011;44322;52.968;5.816;2023-03-14T02:31:03;9.27;;;2.22;;
58528;SDS011;44322;52.968;5.816;2023-03-14T02:33:32;10.60;;;2.22;;
58528;SDS011;44322;52.968;5.816;2023-03-14T02:35:59;20.17;;;3.15;;
58528;SDS011;44322;52.968;5.816;2023-03-14T02:40:54;12.55;;;2.60;;
58528;SDS011;44322;52.968;5.816;2023-03-14T02:43:20;16.40;;;2.88;;
58528;SDS011;44322;52.968;5.816;2023-03-14T02:45:52;13.63;;;2.92;;
58528;SDS011;44322;52.968;5.816;2023-03-14T02:48:22;11.63;;;2.97;;
58528;SDS011;44322;52.968;5.816;2023-03-14T02:50:51;11.80;;;3.08;;
58528;SDS011;44322;52.968;5.816;2023-03-14T02:53:20;18.15;;;3.25;;
58528;SDS011;44322;52.968;5.816;2023-03-14T02:55:49;15.68;;;2.60;;
58528;SDS011;44322;52.968;5.816;2023-03-14T02:58:17;17.00;;;2.95;;
58528;SDS011;44322;52.968;5.816;2023-03-14T03:00:45;14.10;;;3.28;;
58528;SDS011;44322;52.968;5.816;2023-03-14T03:03:11;15.88;;;3.05;;
58528;SDS011;44322;52.968;5.816;2023-03-14T03:05:37;16.70;;;3.38;;
58528;SDS011;44322;52.968;5.816;2023-03-14T03:08:03;16.50;;;3.55;;
58528;SDS011;44322;52.968;5.816;2023-03-14T03:10:30;14.15;;;3.47;;
58528;SDS011;44322;52.968;5.816;2023-03-14T03:12:56;18.08;;;4.05;;
58528;SDS011;44322;52.968;5.816;2023-03-14T03:15:24;24.23;;;3.80;;
58528;SDS011;44322;52.968;5.816;2023-03-14T03:17:50;15.23;;;3.10;;
58528;SDS011;44322;52.968;5.816;2023-03-14T03:20:16;27.85;;;3.72;;
58528;SDS011;44322;52.968;5.816;2023-03-14T03:22:41;17.40;;;3.38;;
58528;SDS011;44322;52.968;5.816;2023-03-14T03:25:08;14.57;;;2.97;;
58528;SDS011;44322;52.968;5.816;2023-03-14T03:27:35;26.92;;;4.13;;
58528;SDS011;44322;52.968;5.816;2023-03-14T03:30:03;22.95;;;4.50;;
58528;SDS011;44322;52.968;5.816;2023-03-14T03:32:32;17.35;;;3.63;;
58528;SDS011;44322;52.968;5.816;2023-03-14T03:34:58;18.83;;;3.72;;
58528;SDS011;44322;52.968;5.816;2023-03-14T03:37:24;23.55;;;4.50;;
58528;SDS011;44322;52.968;5.816;2023-03-14T03:39:50;26.27;;;4.22;;
58528;SDS011;44322;52.968;5.816;2023-03-14T03:42:17;23.25;;;3.90;;
58528;SDS011;44322;52.968;5.816;2023-03-14T03:44:43;18.17;;;3.85;;
58528;SDS011;44322;52.968;5.816;2023-03-14T03:47:09;21.10;;;4.25;;
58528;SDS011;44322;52.968;5.816;2023-03-14T03:49:35;22.10;;;4.32;;
58528;SDS011;44322;52.968;5.816;2023-03-14T03:52:01;19.08;;;4.20;;
58528;SDS011;44322;52.968;5.816;2023-03-14T03:54:27;23.02;;;3.80;;
58528;SDS011;44322;52.968;5.816;2023-03-14T03:56:54;18.00;;;3.80;;
58528;SDS011;44322;52.968;5.816;2023-03-14T03:59:19;19.20;;;3.67;;
58528;SDS011;44322;52.968;5.816;2023-03-14T04:01:45;18.15;;;3.53;;
58528;SDS011;44322;52.968;5.816;2023-03-14T04:04:11;16.38;;;3.55;;
58528;SDS011;44322;52.968;5.816;2023-03-14T04:06:37;22.17;;;3.60;;
58528;SDS011;44322;52.968;5.816;2023-03-14T04:09:03;16.80;;;3.30;;
58528;SDS011;44322;52.968;5.816;2023-03-14T04:11:51;18.77;;;3.80;;
58528;SDS011;44322;52.968;5.816;2023-03-14T04:16:45;13.63;;;3.03;;
58528;SDS011;44322;52.968;5.816;2023-03-14T04:19:14;15.88;;;3.65;;
58528;SDS011;44322;52.968;5.816;2023-03-14T04:21:39;20.33;;;3.90;;
58528;SDS011;44322;52.968;5.816;2023-03-14T04:24:10;13.05;;;3.65;;
58528;SDS011;44322;52.968;5.816;2023-03-14T04:26:37;19.27;;;4.82;;
58528;SDS011;44322;52.968;5.816;2023-03-14T04:29:02;17.23;;;4.25;;
58528;SDS011;44322;52.968;5.816;2023-03-14T04:31:28;14.35;;;4.55;;
58528;SDS011;44322;52.968;5.816;2023-03-14T04:33:54;16.45;;;5.03;;
58528;SDS011;44322;52.968;5.816;2023-03-14T04:36:30;13.68;;;4.68;;
58528;SDS011;44322;52.968;5.816;2023-03-14T04:39:00;12.18;;;5.50;;
58528;SDS011;44322;52.968;5.816;2023-03-14T04:41:26;17.95;;;5.25;;
58528;SDS011;44322;52.968;5.816;2023-03-14T04:43:52;15.15;;;5.90;;
58528;SDS011;44322;52.968;5.816;2023-03-14T04:46:17;18.23;;;5.35;;
58528;SDS011;44322;52.968;5.816;2023-03-14T04:48:44;17.30;;;5.38;;
58528;SDS011;44322;52.968;5.816;2023-03-14T04:51:10;19.70;;;5.53;;
58528;SDS011;44322;52.968;5.816;2023-03-14T04:53:35;14.25;;;5.28;;
58528;SDS011;44322;52.968;5.816;2023-03-14T04:56:05;17.13;;;6.40;;
58528;SDS011;44322;52.968;5.816;2023-03-14T04:58:38;15.57;;;5.53;;
58528;SDS011;44322;52.968;5.816;2023-03-14T05:01:05;16.67;;;5.80;;
58528;SDS011;44322;52.968;5.816;2023-03-14T05:04:03;17.45;;;6.53;;
58528;SDS011;44322;52.968;5.816;2023-03-14T05:06:55;18.73;;;5.88;;
58528;SDS011;44322;52.968;5.816;2023-03-14T05:09:31;18.45;;;6.10;;
58528;SDS011;44322;52.968;5.816;2023-03-14T05:12:32;16.98;;;6.40;;
58528;SDS011;44322;52.968;5.816;2023-03-14T05:15:20;17.42;;;6.38;;
58528;SDS011;44322;52.968;5.816;2023-03-14T05:18:04;16.75;;;6.15;;
58528;SDS011;44322;52.968;5.816;2023-03-14T05:20:50;17.60;;;5.88;;
58528;SDS011;44322;52.968;5.816;2023-03-14T05:23:42;16.90;;;6.60;;
58528;SDS011;44322;52.968;5.816;2023-03-14T05:26:20;18.15;;;6.45;;
58528;SDS011;44322;52.968;5.816;2023-03-14T05:28:56;11.35;;;6.22;;
58528;SDS011;44322;52.968;5.816;2023-03-14T05:31:33;18.17;;;6.90;;
58528;SDS011;44322;52.968;5.816;2023-03-14T05:34:19;15.90;;;6.38;;
58528;SDS011;44322;52.968;5.816;2023-03-14T05:36:55;16.88;;;6.60;;
58528;SDS011;44322;52.968;5.816;2023-03-14T05:39:34;15.02;;;6.75;;
58528;SDS011;44322;52.968;5.816;2023-03-14T05:42:18;12.60;;;6.35;;
58528;SDS011;44322;52.968;5.816;2023-03-14T05:45:04;12.45;;;6.55;;
58528;SDS011;44322;52.968;5.816;2023-03-14T05:47:46;12.70;;;6.13;;
58528;SDS011;44322;52.968;5.816;2023-03-14T05:50:30;15.45;;;6.28;;
58528;SDS011;44322;52.968;5.816;2023-03-14T05:53:14;14.77;;;6.05;;
58528;SDS011;44322;52.968;5.816;2023-03-14T05:55:52;17.20;;;5.60;;
58528;SDS011;44322;52.968;5.816;2023-03-14T05:58:47;10.57;;;5.65;;
58528;SDS011;44322;52.968;5.816;2023-03-14T06:01:39;10.70;;;5.07;;
58528;SDS011;44322;52.968;5.816;2023-03-14T06:04:13;12.18;;;4.85;;
58528;SDS011;44322;52.968;5.816;2023-03-14T06:06:39;12.65;;;4.70;;
58528;SDS011;44322;52.968;5.816;2023-03-14T06:09:06;7.10;;;3.25;;
58528;SDS011;44322;52.968;5.816;2023-03-14T06:11:35;8.60;;;2.80;;
58528;SDS011;44322;52.968;5.816;2023-03-14T06:14:01;9.70;;;2.42;;
58528;SDS011;44322;52.968;5.816;2023-03-14T06:16:26;7.60;;;2.90;;
58528;SDS011;44322;52.968;5.816;2023-03-14T06:18:53;5.75;;;2.10;;
58528;SDS011;44322;52.968;5.816;2023-03-14T06:21:20;5.25;;;1.75;;
58528;SDS011;44322;52.968;5.816;2023-03-14T06:23:47;4.93;;;1.42;;
58528;SDS011;44322;52.968;5.816;2023-03-14T06:26:13;6.50;;;1.38;;
58528;SDS011;44322;52.968;5.816;2023-03-14T06:28:39;4.45;;;1.33;;
58528;SDS011;44322;52.968;5.816;2023-03-14T06:31:04;5.57;;;1.45;;
58528;SDS011;44322;52.968;5.816;2023-03-14T06:33:38;7.18;;;1.42;;
58528;SDS011;44322;52.968;5.816;2023-03-14T06:36:06;11.70;;;1.70;;
58528;SDS011;44322;52.968;5.816;2023-03-14T06:38:36;11.07;;;1.58;;
58528;SDS011;44322;52.968;5.816;2023-03-14T06:41:03;8.70;;;1.42;;
58528;SDS011;44322;52.968;5.816;2023-03-14T06:43:35;11.48;;;1.83;;
58528;SDS011;44322;52.968;5.816;2023-03-14T06:46:01;9.50;;;1.60;;
58528;SDS011;44322;52.968;5.816;2023-03-14T06:48:29;12.23;;;1.50;;
58528;SDS011;44322;52.968;5.816;2023-03-14T06:50:54;10.65;;;1.30;;
58528;SDS011;44322;52.968;5.816;2023-03-14T06:53:21;5.78;;;1.10;;
58528;SDS011;44322;52.968;5.816;2023-03-14T06:55:47;5.18;;;0.98;;
58528;SDS011;44322;52.968;5.816;2023-03-14T06:58:15;4.55;;;0.60;;
58528;SDS011;44322;52.968;5.816;2023-03-14T07:00:44;4.63;;;0.90;;
58528;SDS011;44322;52.968;5.816;2023-03-14T07:03:15;4.68;;;0.90;;
58528;SDS011;44322;52.968;5.816;2023-03-14T07:05:43;3.03;;;0.70;;
58528;SDS011;44322;52.968;5.816;2023-03-14T07:08:09;4.30;;;0.68;;
58528;SDS011;44322;52.968;5.816;2023-03-14T07:10:35;3.88;;;0.60;;
58528;SDS011;44322;52.968;5.816;2023-03-14T07:13:01;5.18;;;0.80;;
58528;SDS011;44322;52.968;5.816;2023-03-14T07:15:30;4.50;;;0.70;;
58528;SDS011;44322;52.968;5.816;2023-03-14T07:18:00;4.55;;;0.65;;
58528;SDS011;44322;52.968;5.816;2023-03-14T07:20:28;2.37;;;0.70;;
58528;SDS011;44322;52.968;5.816;2023-03-14T07:22:55;5.32;;;1.05;;
58528;SDS011;44322;52.968;5.816;2023-03-14T07:25:31;6.15;;;1.00;;
58528;SDS011;44322;52.968;5.816;2023-03-14T07:27:57;6.22;;;1.15;;
58528;SDS011;44322;52.968;5.816;2023-03-14T07:30:23;4.90;;;0.70;;
58528;SDS011;44322;52.968;5.816;2023-03-14T07:32:49;3.80;;;0.80;;
58528;SDS011;44322;52.968;5.816;2023-03-14T07:35:15;2.97;;;0.60;;
58528;SDS011;44322;52.968;5.816;2023-03-14T07:37:41;3.92;;;0.70;;
58528;SDS011;44322;52.968;5.816;2023-03-14T07:40:06;4.40;;;0.68;;
58528;SDS011;44322;52.968;5.816;2023-03-14T07:42:34;3.63;;;0.75;;
58528;SDS011;44322;52.968;5.816;2023-03-14T07:45:23;4.18;;;1.08;;
58528;SDS011;44322;52.968;5.816;2023-03-14T07:47:49;6.80;;;1.15;;
58528;SDS011;44322;52.968;5.816;2023-03-14T07:50:15;5.97;;;0.77;;
58528;SDS011;44322;52.968;5.816;2023-03-14T07:52:40;5.22;;;1.25;;
58528;SDS011;44322;52.968;5.816;2023-03-14T07:55:06;6.45;;;1.13;;
58528;SDS011;44322;52.968;5.816;2023-03-14T07:57:32;7.50;;;1.42;;
58528;SDS011;44322;52.968;5.816;2023-03-14T07:59:58;5.45;;;1.15;;
58528;SDS011;44322;52.968;5.816;2023-03-14T08:02:23;8.27;;;1.05;;
58528;SDS011;44322;52.968;5.816;2023-03-14T08:04:49;4.60;;;1.42;;
58528;SDS011;44322;52.968;5.816;2023-03-14T08:07:15;7.57;;;1.27;;
58528;SDS011;44322;52.968;5.816;2023-03-14T08:09:41;7.57;;;1.33;;
58528;SDS011;44322;52.968;5.816;2023-03-14T08:12:06;6.95;;;1.48;;
58528;SDS011;44322;52.968;5.816;2023-03-14T08:14:32;10.55;;;1.70;;
58528;SDS011;44322;52.968;5.816;2023-03-14T08:16:58;8.23;;;1.50;;
58528;SDS011;44322;52.968;5.816;2023-03-14T08:19:23;6.97;;;1.60;;
58528;SDS011;44322;52.968;5.816;2023-03-14T08:21:49;12.10;;;1.70;;
58528;SDS011;44322;52.968;5.816;2023-03-14T08:24:15;10.93;;;1.65;;
58528;SDS011;44322;52.968;5.816;2023-03-14T08:26:40;12.68;;;1.98;;
58528;SDS011;44322;52.968;5.816;2023-03-14T08:29:06;14.35;;;3.00;;
58528;SDS011;44322;52.968;5.816;2023-03-14T08:31:34;18.58;;;1.92;;
58528;SDS011;44322;52.968;5.816;2023-03-14T08:34:00;12.77;;;2.05;;
58528;SDS011;44322;52.968;5.816;2023-03-14T08:36:27;10.30;;;2.03;;
58528;SDS011;44322;52.968;5.816;2023-03-14T08:38:52;13.68;;;2.60;;
58528;SDS011;44322;52.968;5.816;2023-03-14T08:41:18;16.05;;;2.58;;
58528;SDS011;44322;52.968;5.816;2023-03-14T08:43:44;15.70;;;2.67;;
58528;SDS011;44322;52.968;5.816;2023-03-14T08:46:09;13.63;;;2.45;;
58528;SDS011;44322;52.968;5.816;2023-03-14T08:48:35;13.45;;;2.17;;
58528;SDS011;44322;52.968;5.816;2023-03-14T08:51:10;14.32;;;2.30;;
58528;SDS011;44322;52.968;5.816;2023-03-14T08:53:41;12.38;;;2.03;;
58528;SDS011;44322;52.968;5.816;2023-03-14T08:56:07;13.20;;;2.40;;
58528;SDS011;44322;52.968;5.816;2023-03-14T09:01:03;10.68;;;2.47;;
58528;SDS011;44322;52.968;5.816;2023-03-14T09:03:30;16.85;;;2.90;;
58528;SDS011;44322;52.968;5.816;2023-03-14T09:05:56;14.60;;;2.53;;
58528;SDS011;44322;52.968;5.816;2023-03-14T09:08:21;11.18;;;2.42;;
58528;SDS011;44322;52.968;5.816;2023-03-14T09:10:47;12.80;;;2.70;;
58528;SDS011;44322;52.968;5.816;2023-03-14T09:13:12;19.83;;;3.00;;
58528;SDS011;44322;52.968;5.816;2023-03-14T09:15:38;14.63;;;2.45;;
58528;SDS011;44322;52.968;5.816;2023-03-14T09:18:04;14.73;;;2.67;;
58528;SDS011;44322;52.968;5.816;2023-03-14T09:20:29;16.67;;;2.72;;
58528;SDS011;44322;52.968;5.816;2023-03-14T09:22:55;12.05;;;2.95;;
58528;SDS011;44322;52.968;5.816;2023-03-14T09:25:20;19.10;;;3.00;;
58528;SDS011;44322;52.968;5.816;2023-03-14T09:27:46;14.63;;;2.17;;
58528;SDS011;44322;52.968;5.816;2023-03-14T09:30:12;11.70;;;2.55;;
58528;SDS011;44322;52.968;5.816;2023-03-14T09:32:37;11.00;;;2.60;;
58528;SDS011;44322;52.968;5.816;2023-03-14T09:35:03;15.25;;;2.55;;
58528;SDS011;44322;52.968;5.816;2023-03-14T09:37:29;13.95;;;2.70;;
58528;SDS011;44322;52.968;5.816;2023-03-14T09:39:55;15.50;;;2.72;;
58528;SDS011;44322;52.968;5.816;2023-03-14T09:42:21;18.67;;;3.55;;
58528;SDS011;44322;52.968;5.816;2023-03-14T09:45:02;17.75;;;3.10;;
58528;SDS011;44322;52.968;5.816;2023-03-14T09:47:32;15.25;;;3.05;;
58528;SDS011;44322;52.968;5.816;2023-03-14T09:49:59;13.70;;;3.20;;
58528;SDS011;44322;52.968;5.816;2023-03-14T09:52:28;18.27;;;3.40;;
58528;SDS011;44322;52.968;5.816;2023-03-14T09:54:57;19.90;;;3.35;;
58528;SDS011;44322;52.968;5.816;2023-03-14T09:57:26;18.48;;;2.80;;
58528;SDS011;44322;52.968;5.816;2023-03-14T09:59:53;21.17;;;3.03;;
58528;SDS011;44322;52.968;5.816;2023-03-14T10:02:22;12.55;;;2.58;;
58528;SDS011;44322;52.968;5.816;2023-03-14T10:04:50;16.30;;;3.10;;
58528;SDS011;44322;52.968;5.816;2023-03-14T10:07:18;17.45;;;3.60;;
58528;SDS011;44322;52.968;5.816;2023-03-14T10:09:47;15.30;;;2.65;;
58528;SDS011;44322;52.968;5.816;2023-03-14T10:12:15;15.25;;;2.33;;
58528;SDS011;44322;52.968;5.816;2023-03-14T10:14:48;10.73;;;2.00;;
58528;SDS011;44322;52.968;5.816;2023-03-14T10:17:18;11.25;;;2.25;;
58528;SDS011;44322;52.968;5.816;2023-03-14T10:19:52;12.93;;;2.92;;
58528;SDS011;44322;52.968;5.816;2023-03-14T10:22:23;12.43;;;2.15;;
58528;SDS011;44322;52.968;5.816;2023-03-14T10:24:54;13.48;;;2.92;;
58528;SDS011;44322;52.968;5.816;2023-03-14T10:27:23;20.10;;;2.85;;
58528;SDS011;44322;52.968;5.816;2023-03-14T10:30:04;11.85;;;1.98;;
58528;SDS011;44322;52.968;5.816;2023-03-14T10:32:36;8.65;;;2.03;;
58528;SDS011;44322;52.968;5.816;2023-03-14T10:35:04;11.68;;;2.30;;
58528;SDS011;44322;52.968;5.816;2023-03-14T10:37:34;13.82;;;2.30;;
58528;SDS011;44322;52.968;5.816;2023-03-14T10:40:00;10.30;;;2.22;;
58528;SDS011;44322;52.968;5.816;2023-03-14T10:42:34;9.98;;;2.00;;
58528;SDS011;44322;52.968;5.816;2023-03-14T10:45:05;9.10;;;1.85;;
58528;SDS011;44322;52.968;5.816;2023-03-14T10:47:50;11.07;;;1.95;;
58528;SDS011;44322;52.968;5.816;2023-03-14T10:50:23;15.40;;;2.13;;
58528;SDS011;44322;52.968;5.816;2023-03-14T10:52:53;7.55;;;1.83;;
58528;SDS011;44322;52.968;5.816;2023-03-14T10:55:19;12.18;;;1.73;;
58528;SDS011;44322;52.968;5.816;2023-03-14T10:57:45;9.20;;;1.52;;
58528;SDS011;44322;52.968;5.816;2023-03-14T11:00:17;9.65;;;2.42;;
58528;SDS011;44322;52.968;5.816;2023-03-14T11:06:19;12.00;;;2.15;;
58528;SDS011;44322;52.968;5.816;2023-03-14T11:08:35;9.52;;;2.55;;
58528;SDS011;44322;52.968;5.816;2023-03-14T11:11:19;9.90;;;2.10;;
58528;SDS011;44322;52.968;5.816;2023-03-14T11:14:11;11.07;;;2.30;;
58528;SDS011;44322;52.968;5.816;2023-03-14T11:19:27;7.95;;;1.60;;
58528;SDS011;44322;52.968;5.816;2023-03-14T11:21:55;6.63;;;1.58;;
58528;SDS011;44322;52.968;5.816;2023-03-14T11:29:55;4.97;;;1.00;;
58528;SDS011;44322;52.968;5.816;2023-03-14T11:35:24;5.90;;;1.35;;
58528;SDS011;44322;52.968;5.816;2023-03-14T11:40:41;5.80;;;1.48;;
58528;SDS011;44322;52.968;5.816;2023-03-14T11:43:12;5.03;;;1.20;;
58528;SDS011;44322;52.968;5.816;2023-03-14T11:45:41;6.45;;;1.17;;
58528;SDS011;44322;52.968;5.816;2023-03-14T11:50:52;6.40;;;1.10;;
58528;SDS011;44322;52.968;5.816;2023-03-14T11:53:33;7.63;;;1.70;;
58528;SDS011;44322;52.968;5.816;2023-03-14T11:56:08;7.53;;;1.40;;
58528;SDS011;44322;52.968;5.816;2023-03-14T11:58:37;9.68;;;1.50;;
58528;SDS011;44322;52.968;5.816;2023-03-14T12:01:06;9.65;;;1.40;;
58528;SDS011;44322;52.968;5.816;2023-03-14T12:06:19;6.68;;;1.58;;
58528;SDS011;44322;52.968;5.816;2023-03-14T12:11:31;6.45;;;1.45;;
58528;SDS011;44322;52.968;5.816;2023-03-14T12:13:59;7.25;;;1.40;;
58528;SDS011;44322;52.968;5.816;2023-03-14T12:18:51;4.35;;;1.30;;
58528;SDS011;44322;52.968;5.816;2023-03-14T12:21:17;5.28;;;1.33;;
58528;SDS011;44322;52.968;5.816;2023-03-14T12:23:44;4.97;;;1.15;;
58528;SDS011;44322;52.968;5.816;2023-03-14T12:26:18;5.53;;;1.40;;
58528;SDS011;44322;52.968;5.816;2023-03-14T12:28:48;4.00;;;1.00;;
58528;SDS011;44322;52.968;5.816;2023-03-14T12:34:03;8.10;;;1.55;;
58528;SDS011;44322;52.968;5.816;2023-03-14T12:37:17;5.93;;;1.20;;
58528;SDS011;44322;52.968;5.816;2023-03-14T12:42:16;5.72;;;1.15;;
58528;SDS011;44322;52.968;5.816;2023-03-14T12:44:49;5.45;;;1.40;;
58528;SDS011;44322;52.968;5.816;2023-03-14T12:49:55;6.70;;;1.23;;
58528;SDS011;44322;52.968;5.816;2023-03-14T12:52:29;5.18;;;1.33;;
58528;SDS011;44322;52.968;5.816;2023-03-14T12:55:21;4.30;;;1.08;;
58528;SDS011;44322;52.968;5.816;2023-03-14T13:01:22;8.07;;;1.30;;
58528;SDS011;44322;52.968;5.816;2023-03-14T13:03:45;7.30;;;1.40;;
58528;SDS011;44322;52.968;5.816;2023-03-14T13:06:12;6.10;;;1.20;;
58528;SDS011;44322;52.968;5.816;2023-03-14T13:08:40;7.65;;;1.45;;
58528;SDS011;44322;52.968;5.816;2023-03-14T13:11:27;5.88;;;1.27;;
58528;SDS011;44322;52.968;5.816;2023-03-14T13:13:57;6.55;;;1.52;;
58528;SDS011;44322;52.968;5.816;2023-03-14T13:16:23;6.57;;;1.52;;
58528;SDS011;44322;52.968;5.816;2023-03-14T13:18:50;4.97;;;1.30;;
58528;SDS011;44322;52.968;5.816;2023-03-14T13:21:20;6.97;;;1.30;;
58528;SDS011;44322;52.968;5.816;2023-03-14T13:26:32;6.60;;;1.38;;
58528;SDS011;44322;52.968;5.816;2023-03-14T13:28:59;5.65;;;1.25;;
58528;SDS011;44322;52.968;5.816;2023-03-14T13:31:25;7.93;;;1.45;;
58528;SDS011;44322;52.968;5.816;2023-03-14T13:33:58;6.95;;;1.35;;
58528;SDS011;44322;52.968;5.816;2023-03-14T13:36:27;6.88;;;1.42;;
58528;SDS011;44322;52.968;5.816;2023-03-14T13:39:00;6.70;;;1.20;;
58528;SDS011;44322;52.968;5.816;2023-03-14T13:41:27;6.90;;;1.52;;
58528;SDS011;44322;52.968;5.816;2023-03-14T13:43:55;3.97;;;1.10;;
58528;SDS011;44322;52.968;5.816;2023-03-14T13:46:42;5.72;;;1.95;;
58528;SDS011;44322;52.968;5.816;2023-03-14T13:49:12;3.10;;;1.00;;
58528;SDS011;44322;52.968;5.816;2023-03-14T13:51:49;3.92;;;1.30;;
58528;SDS011;44322;52.968;5.816;2023-03-14T13:54:16;4.63;;;1.23;;
58528;SDS011;44322;52.968;5.816;2023-03-14T13:56:43;8.30;;;1.35;;
58528;SDS011;44322;52.968;5.816;2023-03-14T13:59:22;4.45;;;1.13;;
58528;SDS011;44322;52.968;5.816;2023-03-14T14:01:52;3.83;;;0.93;;
58528;SDS011;44322;52.968;5.816;2023-03-14T14:04:19;4.82;;;0.98;;
58528;SDS011;44322;52.968;5.816;2023-03-14T14:06:47;8.00;;;1.27;;
58528;SDS011;44322;52.968;5.816;2023-03-14T14:11:42;6.93;;;1.50;;
58528;SDS011;44322;52.968;5.816;2023-03-14T14:14:16;8.15;;;1.58;;
58528;SDS011;44322;52.968;5.816;2023-03-14T14:16:48;9.35;;;1.98;;
58528;SDS011;44322;52.968;5.816;2023-03-14T14:19:14;7.50;;;1.65;;
58528;SDS011;44322;52.968;5.816;2023-03-14T14:21:41;5.57;;;1.98;;
58528;SDS011;44322;52.968;5.816;2023-03-14T14:24:09;4.90;;;1.30;;
58528;SDS011;44322;52.968;5.816;2023-03-14T14:26:40;5.90;;;1.60;;
58528;SDS011;44322;52.968;5.816;2023-03-14T14:31:32;7.20;;;1.60;;
58528;SDS011;44322;52.968;5.816;2023-03-14T14:33:58;4.07;;;1.50;;
58528;SDS011;44322;52.968;5.816;2023-03-14T14:36:41;12.75;;;2.28;;
58528;SDS011;44322;52.968;5.816;2023-03-14T14:39:16;10.55;;;2.15;;
58528;SDS011;44322;52.968;5.816;2023-03-14T14:41:50;9.40;;;1.83;;
58528;SDS011;44322;52.968;5.816;2023-03-14T14:44:17;8.63;;;1.77;;
58528;SDS011;44322;52.968;5.816;2023-03-14T14:46:46;10.05;;;1.98;;
58528;SDS011;44322;52.968;5.816;2023-03-14T14:49:17;8.68;;;1.55;;
58528;SDS011;44322;52.968;5.816;2023-03-14T14:51:46;7.05;;;1.90;;
58528;SDS011;44322;52.968;5.816;2023-03-14T14:54:15;10.77;;;1.52;;
58528;SDS011;44322;52.968;5.816;2023-03-14T14:56:52;9.65;;;1.58;;
58528;SDS011;44322;52.968;5.816;2023-03-14T14:59:20;7.38;;;1.95;;
58528;SDS011;44322;52.968;5.816;2023-03-14T15:01:59;5.47;;;1.60;;
58528;SDS011;44322;52.968;5.816;2023-03-14T15:04:31;5.20;;;1.35;;
58528;SDS011;44322;52.968;5.816;2023-03-14T15:06:57;5.85;;;1.50;;
58528;SDS011;44322;52.968;5.816;2023-03-14T15:09:23;6.85;;;1.27;;
58528;SDS011;44322;52.968;5.816;2023-03-14T15:11:49;4.28;;;1.30;;
58528;SDS011;44322;52.968;5.816;2023-03-14T15:14:15;6.57;;;1.50;;
58528;SDS011;44322;52.968;5.816;2023-03-14T15:16:40;7.72;;;1.05;;
58528;SDS011;44322;52.968;5.816;2023-03-14T15:19:10;5.65;;;1.30;;
58528;SDS011;44322;52.968;5.816;2023-03-14T15:24:10;4.97;;;1.55;;
58528;SDS011;44322;52.968;5.816;2023-03-14T15:26:35;6.53;;;1.70;;
58528;SDS011;44322;52.968;5.816;2023-03-14T15:29:01;9.93;;;1.50;;
58528;SDS011;44322;52.968;5.816;2023-03-14T15:31:27;6.43;;;1.77;;
58528;SDS011;44322;52.968;5.816;2023-03-14T15:33:52;7.70;;;2.17;;
58528;SDS011;44322;52.968;5.816;2023-03-14T15:36:28;10.35;;;1.63;;
58528;SDS011;44322;52.968;5.816;2023-03-14T15:38:56;8.52;;;2.75;;
58528;SDS011;44322;52.968;5.816;2023-03-14T15:41:23;12.48;;;4.15;;
58528;SDS011;44322;52.968;5.816;2023-03-14T15:43:49;9.23;;;3.30;;
58528;SDS011;44322;52.968;5.816;2023-03-14T15:46:16;11.93;;;4.00;;
58528;SDS011;44322;52.968;5.816;2023-03-14T15:48:43;10.98;;;2.35;;
58528;SDS011;44322;52.968;5.816;2023-03-14T15:51:09;9.25;;;2.17;;
58528;SDS011;44322;52.968;5.816;2023-03-14T15:53:35;5.00;;;1.50;;
58528;SDS011;44322;52.968;5.816;2023-03-14T15:56:07;6.03;;;1.85;;
58528;SDS011;44322;52.968;5.816;2023-03-14T15:58:37;10.05;;;2.45;;